createdAt,value
2023-04-26T00:00:30.776Z,9.70
2023-04-26T00:03:00.102Z,8.70
2023-04-26T00:05:29.850Z,11.80
2023-04-26T00:07:57.128Z,9.30
2023-04-26T00:10:24.030Z,10.80
2023-04-26T00:12:50.875Z,18.10
2023-04-26T00:15:17.698Z,13.80
2023-04-26T00:17:44.588Z,12.90
2023-04-26T00:20:13.712Z,13.90
2023-04-26T00:22:40.949Z,14.90
2023-04-26T00:25:08.341Z,8.80
2023-04-26T00:27:35.286Z,12.00
2023-04-26T00:30:02.199Z,15.70
2023-04-26T00:32:31.133Z,10.30
2023-04-26T00:34:57.967Z,10.20
2023-04-26T00:37:25.061Z,11.20
2023-04-26T00:39:52.021Z,8.90
2023-04-26T00:42:19.601Z,14.30
2023-04-26T00:44:46.571Z,13.80
2023-04-26T00:47:13.465Z,13.30
2023-04-26T00:49:40.871Z,14.80
2023-04-26T00:52:07.767Z,9.90
2023-04-26T00:54:34.656Z,13.30
2023-04-26T00:57:01.561Z,11.70
2023-04-26T00:59:28.737Z,11.00
2023-04-26T01:01:59.102Z,24.90
2023-04-26T01:04:27.669Z,12.90
2023-04-26T01:06:56.185Z,10.90
2023-04-26T01:09:23.044Z,11.90
2023-04-26T01:11:49.909Z,9.80
2023-04-26T01:14:16.850Z,11.30
2023-04-26T01:16:47.009Z,11.60
2023-04-26T01:21:41.694Z,13.50
2023-04-26T01:24:12.881Z,12.10
2023-04-26T01:26:45.690Z,9.70
2023-04-26T01:29:18.819Z,17.30
2023-04-26T01:31:46.510Z,12.00
2023-04-26T01:34:13.785Z,14.90
2023-04-26T01:36:40.671Z,13.30
2023-04-26T01:39:09.182Z,12.00
2023-04-26T01:41:36.875Z,12.30
2023-04-26T01:44:03.975Z,9.30
2023-04-26T01:46:31.204Z,8.50
2023-04-26T01:48:58.184Z,10.10
2023-04-26T01:51:25.065Z,10.00
2023-04-26T01:53:51.984Z,12.20
2023-04-26T01:56:20.007Z,12.40
2023-04-26T01:58:46.917Z,9.70
2023-04-26T02:01:13.986Z,10.50
2023-04-26T02:03:40.950Z,15.30
2023-04-26T02:06:07.990Z,13.40
2023-04-26T02:08:34.870Z,11.50
2023-04-26T02:11:01.794Z,10.80
2023-04-26T02:13:28.654Z,10.70
2023-04-26T02:15:55.911Z,10.10
2023-04-26T02:18:22.890Z,12.20
2023-04-26T02:20:50.730Z,11.40
2023-04-26T02:23:17.551Z,15.00
2023-04-26T02:25:48.927Z,12.90
2023-04-26T02:28:17.196Z,11.30
2023-04-26T02:30:44.784Z,16.20
2023-04-26T02:33:11.713Z,11.20
2023-04-26T02:35:39.012Z,10.30
2023-04-26T02:38:05.877Z,12.60
2023-04-26T02:40:32.760Z,11.10
2023-04-26T02:42:59.790Z,9.40
2023-04-26T02:45:26.789Z,12.40
2023-04-26T02:47:53.689Z,11.80
2023-04-26T02:50:21.084Z,14.50
2023-04-26T02:52:48.243Z,10.90
2023-04-26T02:55:15.193Z,8.60
2023-04-26T02:57:43.019Z,12.90
2023-04-26T03:00:14.208Z,11.80
2023-04-26T03:02:41.982Z,10.50
2023-04-26T03:05:09.834Z,13.80
2023-04-26T03:07:37.266Z,10.20
2023-04-26T03:10:05.381Z,10.70
2023-04-26T03:12:32.605Z,18.40
2023-04-26T03:15:00.388Z,10.60
2023-04-26T03:17:27.324Z,11.00
2023-04-26T03:19:55.815Z,15.00
2023-04-26T03:22:22.776Z,11.70
2023-04-26T03:24:49.718Z,14.80
2023-04-26T03:27:17.288Z,14.90
2023-04-26T03:29:46.945Z,12.60
2023-04-26T03:32:14.033Z,13.20
2023-04-26T03:34:41.393Z,14.50
2023-04-26T03:37:08.354Z,15.00
2023-04-26T03:39:35.615Z,16.00
2023-04-26T03:42:04.115Z,18.20
2023-04-26T03:44:31.310Z,13.40
2023-04-26T03:46:58.394Z,14.20
2023-04-26T03:49:25.507Z,14.60
2023-04-26T03:51:52.398Z,16.30
2023-04-26T03:54:19.473Z,15.70
2023-04-26T03:56:46.459Z,10.20
2023-04-26T03:59:13.555Z,12.30
2023-04-26T04:01:40.865Z,11.00
2023-04-26T04:04:08.318Z,10.60
2023-04-26T04:06:35.832Z,13.40
2023-04-26T04:09:02.694Z,13.20
2023-04-26T04:11:29.514Z,11.60
2023-04-26T04:13:56.523Z,16.00
2023-04-26T04:16:23.545Z,13.10
2023-04-26T04:18:50.922Z,12.70
2023-04-26T04:21:17.994Z,14.00
2023-04-26T04:23:44.861Z,12.50
2023-04-26T04:26:12.794Z,10.90
2023-04-26T04:28:41.755Z,14.20
2023-04-26T04:31:09.995Z,12.80
2023-04-26T04:33:37.759Z,12.10
2023-04-26T04:36:06.900Z,16.50
2023-04-26T04:38:34.396Z,15.30
2023-04-26T04:41:04.442Z,16.10
2023-04-26T04:43:31.916Z,13.40
2023-04-26T04:45:58.887Z,10.30
2023-04-26T04:48:26.212Z,11.70
2023-04-26T04:50:53.134Z,11.90
2023-04-26T04:53:20.095Z,11.70
2023-04-26T04:55:46.988Z,11.80
2023-04-26T04:58:15.684Z,12.80
2023-04-26T05:00:43.772Z,13.40
2023-04-26T05:05:51.164Z,14.80
2023-04-26T05:08:18.104Z,11.90
2023-04-26T05:10:45.923Z,16.80
2023-04-26T05:13:18.801Z,11.60
2023-04-26T05:15:45.830Z,18.30
2023-04-26T05:18:12.719Z,15.10
2023-04-26T05:20:39.967Z,13.70
2023-04-26T05:23:06.919Z,14.70
2023-04-26T05:25:37.540Z,17.30
2023-04-26T05:28:19.064Z,12.40
2023-04-26T05:31:04.295Z,11.20
2023-04-26T05:33:49.106Z,10.40
2023-04-26T05:36:19.693Z,11.70
2023-04-26T05:38:46.689Z,14.40
2023-04-26T05:41:14.533Z,13.90
2023-04-26T05:43:41.540Z,10.00
2023-04-26T05:46:08.428Z,11.40
2023-04-26T05:48:35.392Z,13.50
2023-04-26T05:51:02.485Z,13.00
2023-04-26T05:53:30.419Z,11.40
2023-04-26T05:55:57.576Z,15.20
2023-04-26T05:58:24.570Z,9.90
2023-04-26T06:00:51.571Z,12.00
2023-04-26T06:03:19.626Z,12.60
2023-04-26T06:05:47.106Z,14.20
2023-04-26T06:08:14.756Z,15.00
2023-04-26T06:10:41.843Z,13.50
2023-04-26T06:13:08.728Z,13.50
2023-04-26T06:15:36.938Z,14.20
2023-04-26T06:18:05.399Z,14.20
2023-04-26T06:20:33.319Z,12.30
2023-04-26T06:23:00.366Z,14.40
2023-04-26T06:25:27.638Z,13.50
2023-04-26T06:27:54.880Z,14.80
2023-04-26T06:30:21.770Z,11.70
2023-04-26T06:32:48.848Z,14.60
2023-04-26T06:35:15.986Z,13.30
2023-04-26T06:37:43.625Z,12.90
2023-04-26T06:40:14.155Z,13.50
2023-04-26T06:42:42.013Z,16.90
2023-04-26T06:45:35.157Z,13.10
2023-04-26T06:48:03.553Z,13.50
2023-04-26T06:50:30.739Z,11.50
2023-04-26T06:52:58.172Z,13.50
2023-04-26T06:55:25.273Z,14.30
2023-04-26T06:57:52.261Z,11.60
2023-04-26T07:00:21.825Z,10.40
2023-04-26T07:02:49.014Z,17.50
2023-04-26T07:05:21.716Z,14.60
2023-04-26T07:07:50.478Z,18.60
2023-04-26T07:10:17.681Z,12.60
2023-04-26T07:12:44.971Z,11.70
2023-04-26T07:15:12.491Z,13.80
2023-04-26T07:17:39.480Z,16.50
2023-04-26T07:20:07.404Z,10.20
2023-04-26T07:22:34.456Z,17.40
2023-04-26T07:25:01.272Z,19.90
2023-04-26T07:27:28.246Z,13.60
2023-04-26T07:29:56.308Z,17.10
2023-04-26T07:32:23.516Z,17.60
2023-04-26T07:34:50.544Z,19.00
2023-04-26T07:37:17.458Z,16.70
2023-04-26T07:39:44.376Z,15.30
2023-04-26T07:42:11.321Z,14.40
2023-04-26T07:44:38.320Z,20.20
2023-04-26T07:47:05.242Z,13.20
2023-04-26T07:49:32.101Z,19.80
2023-04-26T07:52:02.287Z,23.70
2023-04-26T07:54:29.403Z,17.00
2023-04-26T07:56:56.347Z,18.40
2023-04-26T07:59:24.078Z,18.80
2023-04-26T08:01:51.478Z,13.10
2023-04-26T08:04:23.024Z,12.30
2023-04-26T08:06:50.129Z,15.40
2023-04-26T08:09:17.555Z,12.10
2023-04-26T08:11:44.448Z,15.50
2023-04-26T08:14:11.843Z,13.50
2023-04-26T08:16:39.173Z,14.80
2023-04-26T08:19:06.467Z,14.90
2023-04-26T08:21:33.385Z,21.00
2023-04-26T08:24:00.451Z,13.60
2023-04-26T08:26:27.324Z,11.90
2023-04-26T08:28:54.316Z,11.40
2023-04-26T08:31:23.080Z,11.60
2023-04-26T08:33:50.347Z,15.70
2023-04-26T08:36:17.336Z,13.10
2023-04-26T08:38:44.220Z,14.40
2023-04-26T08:41:14.197Z,11.10
2023-04-26T08:43:41.007Z,16.40
2023-04-26T08:46:08.862Z,12.30
2023-04-26T08:48:35.849Z,12.30
2023-04-26T08:51:02.789Z,11.30
2023-04-26T08:53:29.656Z,18.60
2023-04-26T08:55:56.602Z,14.00
2023-04-26T08:58:23.471Z,17.20
2023-04-26T09:00:50.528Z,8.20
2023-04-26T09:03:18.021Z,11.80
2023-04-26T09:05:48.349Z,9.80
2023-04-26T09:08:18.454Z,13.30
2023-04-26T09:10:45.524Z,19.40
2023-04-26T09:13:12.715Z,13.30
2023-04-26T09:15:40.324Z,10.80
2023-04-26T09:18:18.321Z,14.40
2023-04-26T09:20:45.666Z,11.30
2023-04-26T09:23:12.549Z,11.10
2023-04-26T09:25:39.825Z,13.30
2023-04-26T09:28:19.901Z,16.20
2023-04-26T09:30:46.732Z,17.40
2023-04-26T09:33:13.814Z,10.40
2023-04-26T09:35:42.171Z,8.70
2023-04-26T09:38:13.864Z,11.70
2023-04-26T09:40:49.009Z,7.90
2023-04-26T09:43:20.151Z,12.20
2023-04-26T09:45:53.846Z,23.60
2023-04-26T09:48:23.190Z,11.70
2023-04-26T09:51:14.401Z,10.80
2023-04-26T09:53:42.757Z,12.40
2023-04-26T09:56:10.353Z,11.00
2023-04-26T09:58:38.778Z,10.30
2023-04-26T10:01:07.062Z,11.40
2023-04-26T10:03:35.068Z,17.50
2023-04-26T10:06:02.268Z,12.20
2023-04-26T10:08:29.142Z,14.70
2023-04-26T10:10:56.084Z,14.80
2023-04-26T10:13:23.101Z,10.60
2023-04-26T10:15:50.068Z,13.00
2023-04-26T10:18:17.405Z,10.70
2023-04-26T10:20:45.341Z,20.00
2023-04-26T10:23:17.896Z,15.50
2023-04-26T10:25:44.742Z,13.90
2023-04-26T10:28:11.714Z,12.80
2023-04-26T10:30:58.362Z,13.60
2023-04-26T10:33:26.054Z,15.60
2023-04-26T10:36:05.439Z,10.00
2023-04-26T10:38:32.777Z,10.90
2023-04-26T10:41:36.279Z,11.20
2023-04-26T10:44:42.902Z,12.00
2023-04-26T10:47:32.482Z,10.20
2023-04-26T10:50:05.637Z,12.30
2023-04-26T10:52:33.150Z,11.00
2023-04-26T10:55:00.188Z,8.30
2023-04-26T10:57:49.592Z,12.90
2023-04-26T11:00:19.779Z,9.70
2023-04-26T11:02:53.447Z,13.70
2023-04-26T11:05:33.543Z,10.50
2023-04-26T11:08:07.183Z,11.10
2023-04-26T11:10:35.719Z,11.50
2023-04-26T11:13:03.919Z,13.00
2023-04-26T11:15:31.508Z,12.20
2023-04-26T11:17:58.683Z,10.50
2023-04-26T11:20:30.711Z,9.20
2023-04-26T11:22:58.093Z,12.10
2023-04-26T11:25:27.148Z,11.90
2023-04-26T11:28:12.241Z,8.10
2023-04-26T11:30:39.076Z,11.00
2023-04-26T11:33:05.913Z,8.10
2023-04-26T11:35:36.086Z,9.90
2023-04-26T11:38:04.374Z,9.40
2023-04-26T11:40:31.948Z,10.40
2023-04-26T11:43:04.248Z,9.00
2023-04-26T11:45:38.266Z,10.40
2023-04-26T11:48:09.004Z,10.80
2023-04-26T11:50:37.055Z,10.30
2023-04-26T11:53:06.523Z,9.20
2023-04-26T11:55:37.582Z,12.50
2023-04-26T11:58:12.852Z,10.30
2023-04-26T12:01:05.581Z,9.50
2023-04-26T12:03:38.052Z,11.00
2023-04-26T12:06:06.357Z,9.20
2023-04-26T12:08:36.447Z,9.40
2023-04-26T12:11:03.493Z,11.30
2023-04-26T12:13:30.600Z,11.40
2023-04-26T12:15:57.546Z,10.00
2023-04-26T12:18:30.625Z,10.50
2023-04-26T12:21:00.711Z,11.50
2023-04-26T12:23:28.099Z,11.70
2023-04-26T12:26:02.247Z,9.00
2023-04-26T12:28:29.180Z,10.70
2023-04-26T12:30:56.228Z,10.00
2023-04-26T12:33:25.255Z,13.90
2023-04-26T12:35:52.382Z,11.30
2023-04-26T12:38:19.389Z,12.10
2023-04-26T12:40:46.849Z,9.70
2023-04-26T12:43:13.778Z,12.80
2023-04-26T12:45:40.632Z,9.70
2023-04-26T12:48:07.833Z,12.10
2023-04-26T12:50:34.939Z,12.10
2023-04-26T12:53:02.497Z,13.70
2023-04-26T12:55:31.913Z,12.70
2023-04-26T12:58:02.843Z,13.40
2023-04-26T13:00:29.775Z,15.70
2023-04-26T13:03:00.023Z,17.70
2023-04-26T13:07:59.026Z,10.60
2023-04-26T13:10:25.870Z,14.20
2023-04-26T13:12:54.123Z,12.60
2023-04-26T13:15:21.741Z,18.70
2023-04-26T13:17:48.606Z,14.00
2023-04-26T13:20:16.022Z,20.30
2023-04-26T13:22:43.748Z,14.60
2023-04-26T13:25:11.375Z,14.20
2023-04-26T13:27:38.199Z,15.70
2023-04-26T13:30:06.638Z,12.80
2023-04-26T13:32:33.761Z,16.50
2023-04-26T13:35:00.629Z,17.50
2023-04-26T13:37:27.919Z,12.30
2023-04-26T13:39:57.601Z,14.70
2023-04-26T13:42:24.562Z,18.50
2023-04-26T13:44:51.844Z,15.50
2023-04-26T13:47:19.232Z,18.80
2023-04-26T13:49:46.484Z,18.20
2023-04-26T13:52:13.439Z,15.10
2023-04-26T13:54:40.550Z,18.20
2023-04-26T13:57:07.577Z,21.50
2023-04-26T13:59:34.508Z,15.50
2023-04-26T14:02:01.428Z,19.70
2023-04-26T14:04:31.511Z,17.80
2023-04-26T14:06:58.885Z,13.80
2023-04-26T14:09:25.799Z,17.10
2023-04-26T14:12:07.351Z,18.40
2023-04-26T14:14:36.448Z,13.20
2023-04-26T14:17:03.805Z,17.80
2023-04-26T14:19:30.696Z,21.90
2023-04-26T14:21:57.641Z,82.20
2023-04-26T14:24:24.579Z,39.80
2023-04-26T14:26:51.659Z,20.60
2023-04-26T14:29:18.511Z,40.60
2023-04-26T14:31:46.117Z,17.60
2023-04-26T14:34:13.621Z,80.60
2023-04-26T14:36:49.460Z,24.40
2023-04-26T14:39:19.611Z,16.20
2023-04-26T14:41:48.198Z,15.50
2023-04-26T14:44:15.154Z,18.70
2023-04-26T14:46:42.443Z,17.80
2023-04-26T14:49:09.349Z,22.40
2023-04-26T14:51:36.662Z,15.30
2023-04-26T14:54:03.739Z,17.00
2023-04-26T14:56:34.663Z,16.00
2023-04-26T14:59:04.456Z,15.20
2023-04-26T15:01:31.451Z,16.60
2023-04-26T15:04:00.472Z,16.30
2023-04-26T15:06:28.959Z,16.50
2023-04-26T15:08:55.934Z,18.60
2023-04-26T15:11:26.245Z,49.60
2023-04-26T15:16:20.050Z,19.00
2023-04-26T15:18:46.973Z,29.60
2023-04-26T15:21:17.813Z,15.20
2023-04-26T15:23:47.887Z,20.00
2023-04-26T15:26:14.792Z,29.70
2023-04-26T15:28:41.624Z,23.50
2023-04-26T15:31:09.794Z,15.80
2023-04-26T15:33:37.006Z,16.00
2023-04-26T15:36:04.376Z,17.70
2023-04-26T15:38:31.325Z,18.40
2023-04-26T15:40:58.354Z,13.20
2023-04-26T15:43:25.267Z,18.60
2023-04-26T15:45:55.425Z,19.90
2023-04-26T15:48:22.537Z,20.20
2023-04-26T15:50:53.866Z,28.00
2023-04-26T15:53:22.027Z,30.10
2023-04-26T15:55:48.833Z,25.30
2023-04-26T15:58:15.768Z,16.10
2023-04-26T16:00:42.762Z,18.90
2023-04-26T16:03:10.256Z,21.90
2023-04-26T16:05:37.332Z,17.90
2023-04-26T16:08:05.842Z,19.50
2023-04-26T16:10:32.646Z,18.20
2023-04-26T16:12:59.700Z,17.50
2023-04-26T16:15:29.875Z,29.90
2023-04-26T16:17:56.797Z,31.30
2023-04-26T16:20:23.750Z,49.20
2023-04-26T16:22:50.614Z,21.10
2023-04-26T16:25:17.528Z,19.50
2023-04-26T16:27:44.757Z,22.70
2023-04-26T16:30:12.377Z,14.30
2023-04-26T16:32:39.336Z,21.30
2023-04-26T16:35:08.929Z,83.20
2023-04-26T16:37:35.921Z,45.90
2023-04-26T16:40:05.081Z,65.20
2023-04-26T16:42:32.105Z,33.80
2023-04-26T16:44:58.997Z,22.70
2023-04-26T16:47:26.979Z,19.00
2023-04-26T16:49:53.847Z,25.20
2023-04-26T16:52:21.049Z,32.90
2023-04-26T16:54:47.953Z,100.30
2023-04-26T16:57:14.806Z,106.40
2023-04-26T16:59:41.707Z,44.20
2023-04-26T17:02:08.759Z,18.10
2023-04-26T17:04:36.004Z,18.20
2023-04-26T17:07:03.183Z,21.60
2023-04-26T17:09:30.074Z,22.10
2023-04-26T17:11:56.954Z,84.30
2023-04-26T17:14:23.810Z,135.30
2023-04-26T17:16:50.790Z,26.30
2023-04-26T17:19:17.952Z,47.20
2023-04-26T17:21:44.874Z,33.30
2023-04-26T17:24:11.903Z,18.30
2023-04-26T17:26:38.837Z,21.70
2023-04-26T17:29:06.022Z,144.60
2023-04-26T17:31:32.850Z,90.90
2023-04-26T17:34:00.517Z,32.60
2023-04-26T17:36:28.533Z,36.10
2023-04-26T17:38:55.460Z,24.30
2023-04-26T17:41:22.573Z,22.90
2023-04-26T17:43:49.411Z,22.60
2023-04-26T17:46:16.444Z,34.70
2023-04-26T17:48:43.629Z,40.50
2023-04-26T17:51:10.674Z,37.90
2023-04-26T17:53:38.682Z,42.80
2023-04-26T17:56:07.699Z,32.40
2023-04-26T17:58:34.574Z,29.80
2023-04-26T18:01:02.014Z,31.50
2023-04-26T18:03:31.526Z,33.00
2023-04-26T18:05:58.801Z,28.70
2023-04-26T18:08:25.966Z,32.50
2023-04-26T18:10:54.169Z,26.60
2023-04-26T18:13:21.608Z,33.60
2023-04-26T18:15:49.004Z,29.90
2023-04-26T18:18:16.221Z,29.60
2023-04-26T18:20:43.395Z,28.80
2023-04-26T18:23:10.236Z,26.00
2023-04-26T18:25:37.090Z,22.30
2023-04-26T18:28:03.978Z,24.10
2023-04-26T18:30:30.891Z,25.00
2023-04-26T18:32:57.747Z,29.70
2023-04-26T18:35:24.625Z,23.90
2023-04-26T18:37:51.900Z,22.10
2023-04-26T18:40:18.831Z,22.80
2023-04-26T18:42:45.680Z,28.80
2023-04-26T18:45:16.057Z,24.50
2023-04-26T18:47:42.974Z,32.80
2023-04-26T18:50:10.326Z,27.30
2023-04-26T18:52:39.744Z,31.00
2023-04-26T18:55:07.782Z,32.40
2023-04-26T18:57:38.041Z,29.10
2023-04-26T19:02:34.296Z,35.50
2023-04-26T19:05:01.942Z,30.90
2023-04-26T19:07:29.100Z,29.90
2023-04-26T19:09:59.726Z,30.80
2023-04-26T19:12:30.782Z,29.10
2023-04-26T19:14:57.598Z,32.10
2023-04-26T19:17:24.557Z,34.90
2023-04-26T19:19:55.527Z,36.30
2023-04-26T19:22:22.378Z,31.00
2023-04-26T19:24:50.227Z,30.40
2023-04-26T19:27:17.499Z,24.50
2023-04-26T19:29:44.409Z,28.00
2023-04-26T19:32:11.257Z,29.70
2023-04-26T19:34:39.001Z,26.70
2023-04-26T19:37:06.203Z,26.50
2023-04-26T19:39:33.231Z,21.90
2023-04-26T19:42:01.634Z,27.40
2023-04-26T19:44:28.523Z,23.40
2023-04-26T19:46:55.983Z,26.80
2023-04-26T19:49:23.028Z,30.50
2023-04-26T19:51:49.912Z,24.70
2023-04-26T19:54:19.902Z,25.00
2023-04-26T19:56:47.075Z,28.60
2023-04-26T19:59:15.075Z,29.40
2023-04-26T20:01:41.961Z,26.00
2023-04-26T20:04:08.823Z,29.10
2023-04-26T20:06:36.510Z,31.40
2023-04-26T20:09:10.210Z,32.00
2023-04-26T20:11:37.686Z,35.20
2023-04-26T20:14:04.557Z,37.60
2023-04-26T20:16:31.488Z,29.10
2023-04-26T20:18:58.400Z,31.60
2023-04-26T20:21:27.128Z,29.50
2023-04-26T20:23:55.078Z,33.20
2023-04-26T20:26:22.035Z,32.70
2023-04-26T20:28:49.374Z,28.40
2023-04-26T20:31:16.273Z,32.70
2023-04-26T20:33:43.200Z,33.00
2023-04-26T20:36:13.078Z,33.70
2023-04-26T20:38:41.748Z,28.30
2023-04-26T20:41:08.591Z,36.40
2023-04-26T20:43:35.465Z,31.60
2023-04-26T20:46:02.479Z,33.50
2023-04-26T20:48:29.349Z,30.90
2023-04-26T20:50:58.795Z,32.40
2023-04-26T20:53:25.767Z,31.00
2023-04-26T20:55:53.555Z,25.70
2023-04-26T20:58:20.511Z,29.50
2023-04-26T21:00:51.565Z,29.10
2023-04-26T21:03:18.823Z,21.20
2023-04-26T21:05:46.212Z,15.90
2023-04-26T21:08:13.156Z,11.90
2023-04-26T21:10:40.002Z,9.70
2023-04-26T21:13:06.843Z,6.30
2023-04-26T21:15:33.785Z,6.40
2023-04-26T21:18:00.704Z,6.40
2023-04-26T21:20:27.603Z,6.10
2023-04-26T21:22:54.448Z,5.90
2023-04-26T21:25:21.840Z,7.70
2023-04-26T21:27:51.291Z,6.80
2023-04-26T21:30:18.331Z,8.40
2023-04-26T21:32:45.214Z,5.50
2023-04-26T21:35:12.201Z,7.00
2023-04-26T21:37:39.625Z,6.70
2023-04-26T21:40:08.154Z,6.80
2023-04-26T21:42:34.983Z,7.00
2023-04-26T21:45:01.905Z,5.70
2023-04-26T21:47:28.828Z,8.70
2023-04-26T21:49:55.894Z,4.90
2023-04-26T21:52:22.814Z,3.60
2023-04-26T21:54:51.756Z,4.30
2023-04-26T21:57:23.181Z,6.50
2023-04-26T22:02:20.185Z,7.40
2023-04-26T22:04:47.203Z,4.70
2023-04-26T22:07:14.147Z,6.10
2023-04-26T22:09:41.254Z,3.20
2023-04-26T22:12:08.138Z,2.30
2023-04-26T22:14:34.968Z,3.60
2023-04-26T22:17:02.551Z,2.80
2023-04-26T22:19:29.497Z,3.70
2023-04-26T22:21:56.569Z,5.80
2023-04-26T22:24:23.514Z,3.10
2023-04-26T22:26:50.438Z,2.60
2023-04-26T22:29:17.326Z,3.20
2023-04-26T22:31:44.299Z,2.50
2023-04-26T22:34:11.231Z,1.30
2023-04-26T22:36:39.680Z,3.40
2023-04-26T22:39:06.554Z,4.60
2023-04-26T22:41:33.716Z,5.80
2023-04-26T22:44:01.088Z,2.10
2023-04-26T22:46:28.074Z,3.00
2023-04-26T22:48:55.062Z,4.30
2023-04-26T22:51:21.988Z,1.70
2023-04-26T22:53:48.956Z,0.90
2023-04-26T22:56:16.498Z,3.00
2023-04-26T22:58:56.634Z,1.60
2023-04-26T23:01:23.653Z,1.90
2023-04-26T23:03:50.652Z,2.20
2023-04-26T23:06:17.694Z,2.90
2023-04-26T23:08:44.625Z,2.60
2023-04-26T23:11:11.522Z,3.30
2023-04-26T23:13:38.414Z,2.10
2023-04-26T23:16:05.617Z,1.90
2023-04-26T23:18:32.479Z,1.90
2023-04-26T23:20:59.303Z,4.10
2023-04-26T23:23:26.913Z,2.90
2023-04-26T23:25:53.789Z,2.60
2023-04-26T23:28:20.758Z,1.90
2023-04-26T23:30:48.754Z,1.80
2023-04-26T23:33:16.268Z,3.50
2023-04-26T23:35:43.402Z,2.60
2023-04-26T23:38:10.400Z,2.50
2023-04-26T23:40:37.389Z,1.40
2023-04-26T23:43:06.299Z,5.60
2023-04-26T23:45:33.290Z,2.30
2023-04-26T23:48:00.249Z,2.50
2023-04-26T23:50:27.298Z,1.90
2023-04-26T23:52:54.248Z,4.00
2023-04-26T23:55:21.237Z,3.30
2023-04-26T23:57:48.163Z,2.00
